sensor_id;sensor_type;location;lat;lon;timestamp;P1;durP1;ratioP1;P2;durP2;ratioP2
80852;SDS011;70270;43.434;28.338;2024-01-07T00:01:07;18.10;;;8.75;;
80852;SDS011;70270;43.434;28.338;2024-01-07T00:03:52;12.55;;;8.20;;
80852;SDS011;70270;43.434;28.338;2024-01-07T00:06:37;16.17;;;8.32;;
80852;SDS011;70270;43.434;28.338;2024-01-07T00:09:21;17.63;;;9.50;;
80852;SDS011;70270;43.434;28.338;2024-01-07T00:12:06;14.07;;;8.07;;
80852;SDS011;70270;43.434;28.338;2024-01-07T00:14:50;13.27;;;8.23;;
80852;SDS011;70270;43.434;28.338;2024-01-07T00:17:35;19.92;;;9.32;;
80852;SDS011;70270;43.434;28.338;2024-01-07T00:20:19;19.52;;;9.38;;
80852;SDS011;70270;43.434;28.338;2024-01-07T00:23:03;30.20;;;9.80;;
80852;SDS011;70270;43.434;28.338;2024-01-07T00:25:48;17.90;;;8.75;;
80852;SDS011;70270;43.434;28.338;2024-01-07T00:28:32;18.48;;;9.55;;
80852;SDS011;70270;43.434;28.338;2024-01-07T00:31:17;20.05;;;9.02;;
80852;SDS011;70270;43.434;28.338;2024-01-07T00:34:01;20.45;;;9.73;;
80852;SDS011;70270;43.434;28.338;2024-01-07T00:36:46;16.27;;;9.02;;
80852;SDS011;70270;43.434;28.338;2024-01-07T00:39:30;20.30;;;10.02;;
80852;SDS011;70270;43.434;28.338;2024-01-07T00:42:15;19.42;;;10.38;;
80852;SDS011;70270;43.434;28.338;2024-01-07T00:44:59;18.42;;;8.95;;
80852;SDS011;70270;43.434;28.338;2024-01-07T00:47:43;20.02;;;11.55;;
80852;SDS011;70270;43.434;28.338;2024-01-07T00:50:28;20.13;;;10.68;;
80852;SDS011;70270;43.434;28.338;2024-01-07T00:53:12;15.00;;;10.18;;
80852;SDS011;70270;43.434;28.338;2024-01-07T00:55:57;20.45;;;10.38;;
80852;SDS011;70270;43.434;28.338;2024-01-07T00:58:41;16.02;;;9.63;;
80852;SDS011;70270;43.434;28.338;2024-01-07T01:01:26;22.67;;;11.30;;
80852;SDS011;70270;43.434;28.338;2024-01-07T01:04:10;24.17;;;11.23;;
80852;SDS011;70270;43.434;28.338;2024-01-07T01:06:55;18.67;;;11.18;;
80852;SDS011;70270;43.434;28.338;2024-01-07T01:09:39;20.92;;;10.98;;
80852;SDS011;70270;43.434;28.338;2024-01-07T01:12:24;23.10;;;10.60;;
80852;SDS011;70270;43.434;28.338;2024-01-07T01:15:08;18.77;;;10.32;;
80852;SDS011;70270;43.434;28.338;2024-01-07T01:17:53;20.33;;;10.32;;
80852;SDS011;70270;43.434;28.338;2024-01-07T01:20:37;17.00;;;11.02;;
80852;SDS011;70270;43.434;28.338;2024-01-07T01:23:22;15.93;;;10.68;;
80852;SDS011;70270;43.434;28.338;2024-01-07T01:26:06;19.25;;;11.07;;
80852;SDS011;70270;43.434;28.338;2024-01-07T01:28:51;17.63;;;11.23;;
80852;SDS011;70270;43.434;28.338;2024-01-07T01:31:35;20.00;;;10.38;;
80852;SDS011;70270;43.434;28.338;2024-01-07T01:34:20;16.50;;;9.98;;
80852;SDS011;70270;43.434;28.338;2024-01-07T01:37:04;18.27;;;10.32;;
80852;SDS011;70270;43.434;28.338;2024-01-07T01:39:49;22.20;;;10.23;;
80852;SDS011;70270;43.434;28.338;2024-01-07T01:42:34;17.85;;;10.82;;
80852;SDS011;70270;43.434;28.338;2024-01-07T01:45:18;20.55;;;11.35;;
80852;SDS011;70270;43.434;28.338;2024-01-07T01:48:02;21.73;;;10.40;;
80852;SDS011;70270;43.434;28.338;2024-01-07T01:50:47;26.23;;;12.88;;
80852;SDS011;70270;43.434;28.338;2024-01-07T01:53:32;26.77;;;11.02;;
80852;SDS011;70270;43.434;28.338;2024-01-07T01:56:18;16.73;;;11.80;;
80852;SDS011;70270;43.434;28.338;2024-01-07T01:59:04;26.60;;;11.25;;
80852;SDS011;70270;43.434;28.338;2024-01-07T02:01:49;41.42;;;12.38;;
80852;SDS011;70270;43.434;28.338;2024-01-07T02:04:33;29.02;;;12.40;;
80852;SDS011;70270;43.434;28.338;2024-01-07T02:07:18;30.38;;;12.80;;
80852;SDS011;70270;43.434;28.338;2024-01-07T02:10:02;26.05;;;12.07;;
80852;SDS011;70270;43.434;28.338;2024-01-07T02:12:47;22.05;;;11.55;;
80852;SDS011;70270;43.434;28.338;2024-01-07T02:15:32;22.35;;;10.95;;
80852;SDS011;70270;43.434;28.338;2024-01-07T02:18:17;21.75;;;11.55;;
80852;SDS011;70270;43.434;28.338;2024-01-07T02:21:02;20.25;;;12.07;;
80852;SDS011;70270;43.434;28.338;2024-01-07T02:23:47;26.35;;;13.48;;
80852;SDS011;70270;43.434;28.338;2024-01-07T02:26:31;20.88;;;11.93;;
80852;SDS011;70270;43.434;28.338;2024-01-07T02:29:15;20.15;;;11.55;;
80852;SDS011;70270;43.434;28.338;2024-01-07T02:32:00;24.85;;;12.07;;
80852;SDS011;70270;43.434;28.338;2024-01-07T02:34:44;24.85;;;12.13;;
80852;SDS011;70270;43.434;28.338;2024-01-07T02:37:31;23.48;;;12.23;;
80852;SDS011;70270;43.434;28.338;2024-01-07T02:40:15;19.77;;;11.23;;
80852;SDS011;70270;43.434;28.338;2024-01-07T02:43:00;20.73;;;10.73;;
80852;SDS011;70270;43.434;28.338;2024-01-07T02:45:44;20.55;;;11.23;;
80852;SDS011;70270;43.434;28.338;2024-01-07T02:48:28;20.02;;;10.60;;
80852;SDS011;70270;43.434;28.338;2024-01-07T02:51:13;23.17;;;10.77;;
80852;SDS011;70270;43.434;28.338;2024-01-07T02:53:58;20.05;;;10.32;;
80852;SDS011;70270;43.434;28.338;2024-01-07T02:56:42;23.33;;;11.10;;
80852;SDS011;70270;43.434;28.338;2024-01-07T02:59:27;20.63;;;10.75;;
80852;SDS011;70270;43.434;28.338;2024-01-07T03:02:11;23.80;;;11.23;;
80852;SDS011;70270;43.434;28.338;2024-01-07T03:04:56;21.58;;;10.23;;
80852;SDS011;70270;43.434;28.338;2024-01-07T03:07:40;20.98;;;10.88;;
80852;SDS011;70270;43.434;28.338;2024-01-07T03:10:25;15.63;;;10.45;;
80852;SDS011;70270;43.434;28.338;2024-01-07T03:13:09;21.83;;;10.77;;
80852;SDS011;70270;43.434;28.338;2024-01-07T03:15:54;14.52;;;9.35;;
80852;SDS011;70270;43.434;28.338;2024-01-07T03:18:39;15.18;;;10.63;;
80852;SDS011;70270;43.434;28.338;2024-01-07T03:21:23;19.45;;;10.40;;
80852;SDS011;70270;43.434;28.338;2024-01-07T03:24:08;22.70;;;10.05;;
80852;SDS011;70270;43.434;28.338;2024-01-07T03:26:52;22.20;;;9.38;;
80852;SDS011;70270;43.434;28.338;2024-01-07T03:29:37;17.23;;;9.60;;
80852;SDS011;70270;43.434;28.338;2024-01-07T03:32:21;16.60;;;9.13;;
80852;SDS011;70270;43.434;28.338;2024-01-07T03:35:06;18.90;;;10.02;;
80852;SDS011;70270;43.434;28.338;2024-01-07T03:37:52;17.85;;;9.27;;
80852;SDS011;70270;43.434;28.338;2024-01-07T03:40:37;19.13;;;9.48;;
80852;SDS011;70270;43.434;28.338;2024-01-07T03:43:21;15.45;;;7.82;;
80852;SDS011;70270;43.434;28.338;2024-01-07T03:46:06;20.70;;;10.40;;
80852;SDS011;70270;43.434;28.338;2024-01-07T03:48:50;14.25;;;8.60;;
80852;SDS011;70270;43.434;28.338;2024-01-07T03:51:35;13.60;;;8.93;;
80852;SDS011;70270;43.434;28.338;2024-01-07T03:54:19;18.02;;;8.80;;
80852;SDS011;70270;43.434;28.338;2024-01-07T03:57:04;15.55;;;8.70;;
80852;SDS011;70270;43.434;28.338;2024-01-07T03:59:48;16.65;;;9.05;;
80852;SDS011;70270;43.434;28.338;2024-01-07T04:02:33;16.95;;;8.98;;
80852;SDS011;70270;43.434;28.338;2024-01-07T04:05:20;15.43;;;8.27;;
80852;SDS011;70270;43.434;28.338;2024-01-07T04:08:04;17.15;;;8.20;;
80852;SDS011;70270;43.434;28.338;2024-01-07T04:10:49;14.43;;;7.95;;
80852;SDS011;70270;43.434;28.338;2024-01-07T04:13:33;15.82;;;6.90;;
80852;SDS011;70270;43.434;28.338;2024-01-07T04:16:18;15.23;;;6.97;;
80852;SDS011;70270;43.434;28.338;2024-01-07T04:19:03;14.75;;;7.07;;
80852;SDS011;70270;43.434;28.338;2024-01-07T04:21:47;13.15;;;7.18;;
80852;SDS011;70270;43.434;28.338;2024-01-07T04:24:31;15.63;;;7.55;;
80852;SDS011;70270;43.434;28.338;2024-01-07T04:27:16;12.55;;;7.35;;
80852;SDS011;70270;43.434;28.338;2024-01-07T04:30:01;14.02;;;7.30;;
80852;SDS011;70270;43.434;28.338;2024-01-07T04:32:45;12.60;;;7.47;;
80852;SDS011;70270;43.434;28.338;2024-01-07T04:35:30;13.20;;;7.30;;
80852;SDS011;70270;43.434;28.338;2024-01-07T04:38:14;15.32;;;7.55;;
80852;SDS011;70270;43.434;28.338;2024-01-07T04:40:59;19.00;;;7.55;;
80852;SDS011;70270;43.434;28.338;2024-01-07T04:43:43;14.65;;;8.10;;
80852;SDS011;70270;43.434;28.338;2024-01-07T04:46:28;17.10;;;7.72;;
80852;SDS011;70270;43.434;28.338;2024-01-07T04:49:12;14.43;;;7.25;;
80852;SDS011;70270;43.434;28.338;2024-01-07T04:51:57;12.68;;;7.38;;
80852;SDS011;70270;43.434;28.338;2024-01-07T04:54:41;13.73;;;7.30;;
80852;SDS011;70270;43.434;28.338;2024-01-07T04:57:26;13.43;;;7.05;;
80852;SDS011;70270;43.434;28.338;2024-01-07T05:00:11;11.50;;;7.18;;
80852;SDS011;70270;43.434;28.338;2024-01-07T05:02:56;15.02;;;7.53;;
80852;SDS011;70270;43.434;28.338;2024-01-07T05:05:40;14.13;;;6.35;;
80852;SDS011;70270;43.434;28.338;2024-01-07T05:08:26;15.93;;;7.63;;
80852;SDS011;70270;43.434;28.338;2024-01-07T05:11:10;13.52;;;7.00;;
80852;SDS011;70270;43.434;28.338;2024-01-07T05:13:55;16.50;;;7.55;;
80852;SDS011;70270;43.434;28.338;2024-01-07T05:16:39;20.13;;;8.05;;
80852;SDS011;70270;43.434;28.338;2024-01-07T05:19:24;13.93;;;7.20;;
80852;SDS011;70270;43.434;28.338;2024-01-07T05:22:09;17.25;;;7.82;;
80852;SDS011;70270;43.434;28.338;2024-01-07T05:24:53;16.35;;;6.57;;
80852;SDS011;70270;43.434;28.338;2024-01-07T05:27:37;13.45;;;6.57;;
80852;SDS011;70270;43.434;28.338;2024-01-07T05:30:22;16.48;;;7.35;;
80852;SDS011;70270;43.434;28.338;2024-01-07T05:33:06;12.05;;;6.50;;
80852;SDS011;70270;43.434;28.338;2024-01-07T05:35:51;11.25;;;6.45;;
80852;SDS011;70270;43.434;28.338;2024-01-07T05:38:36;10.63;;;5.95;;
80852;SDS011;70270;43.434;28.338;2024-01-07T05:41:20;12.75;;;5.70;;
80852;SDS011;70270;43.434;28.338;2024-01-07T05:44:06;12.68;;;5.15;;
80852;SDS011;70270;43.434;28.338;2024-01-07T05:46:52;10.40;;;5.47;;
80852;SDS011;70270;43.434;28.338;2024-01-07T05:49:36;14.15;;;6.80;;
80852;SDS011;70270;43.434;28.338;2024-01-07T05:52:20;18.33;;;7.30;;
80852;SDS011;70270;43.434;28.338;2024-01-07T05:55:05;16.70;;;6.65;;
80852;SDS011;70270;43.434;28.338;2024-01-07T05:57:49;15.13;;;7.43;;
80852;SDS011;70270;43.434;28.338;2024-01-07T06:00:34;14.13;;;6.78;;
80852;SDS011;70270;43.434;28.338;2024-01-07T06:03:18;13.80;;;5.70;;
80852;SDS011;70270;43.434;28.338;2024-01-07T06:06:03;13.40;;;6.15;;
80852;SDS011;70270;43.434;28.338;2024-01-07T06:08:47;13.50;;;5.68;;
80852;SDS011;70270;43.434;28.338;2024-01-07T06:11:32;19.95;;;7.53;;
80852;SDS011;70270;43.434;28.338;2024-01-07T06:14:16;19.58;;;8.23;;
80852;SDS011;70270;43.434;28.338;2024-01-07T06:17:00;19.25;;;8.68;;
80852;SDS011;70270;43.434;28.338;2024-01-07T06:19:45;18.60;;;9.23;;
80852;SDS011;70270;43.434;28.338;2024-01-07T06:22:29;17.50;;;8.25;;
80852;SDS011;70270;43.434;28.338;2024-01-07T06:25:14;17.98;;;8.27;;
80852;SDS011;70270;43.434;28.338;2024-01-07T06:27:58;20.23;;;8.77;;
80852;SDS011;70270;43.434;28.338;2024-01-07T06:30:43;17.67;;;9.35;;
80852;SDS011;70270;43.434;28.338;2024-01-07T06:33:27;17.08;;;8.10;;
80852;SDS011;70270;43.434;28.338;2024-01-07T06:36:12;24.10;;;8.50;;
80852;SDS011;70270;43.434;28.338;2024-01-07T06:38:56;21.88;;;9.57;;
80852;SDS011;70270;43.434;28.338;2024-01-07T06:41:40;19.00;;;9.40;;
80852;SDS011;70270;43.434;28.338;2024-01-07T06:44:25;22.15;;;9.73;;
80852;SDS011;70270;43.434;28.338;2024-01-07T06:47:09;31.52;;;15.18;;
80852;SDS011;70270;43.434;28.338;2024-01-07T06:49:54;36.05;;;17.55;;
80852;SDS011;70270;43.434;28.338;2024-01-07T06:52:38;23.85;;;11.43;;
80852;SDS011;70270;43.434;28.338;2024-01-07T06:55:23;20.92;;;9.82;;
80852;SDS011;70270;43.434;28.338;2024-01-07T06:58:07;19.73;;;8.50;;
80852;SDS011;70270;43.434;28.338;2024-01-07T07:00:52;13.65;;;7.25;;
80852;SDS011;70270;43.434;28.338;2024-01-07T07:03:36;13.05;;;6.43;;
80852;SDS011;70270;43.434;28.338;2024-01-07T07:06:21;14.52;;;6.30;;
80852;SDS011;70270;43.434;28.338;2024-01-07T07:09:05;13.18;;;5.82;;
80852;SDS011;70270;43.434;28.338;2024-01-07T07:11:50;13.38;;;6.10;;
80852;SDS011;70270;43.434;28.338;2024-01-07T07:14:34;13.85;;;6.65;;
80852;SDS011;70270;43.434;28.338;2024-01-07T07:17:19;13.93;;;6.60;;
80852;SDS011;70270;43.434;28.338;2024-01-07T07:20:04;11.85;;;6.05;;
80852;SDS011;70270;43.434;28.338;2024-01-07T07:22:49;13.68;;;7.25;;
80852;SDS011;70270;43.434;28.338;2024-01-07T07:25:35;15.35;;;6.93;;
80852;SDS011;70270;43.434;28.338;2024-01-07T07:28:19;15.95;;;8.25;;
80852;SDS011;70270;43.434;28.338;2024-01-07T07:31:04;15.20;;;8.30;;
80852;SDS011;70270;43.434;28.338;2024-01-07T07:33:49;16.80;;;7.97;;
80852;SDS011;70270;43.434;28.338;2024-01-07T07:36:33;23.50;;;7.55;;
80852;SDS011;70270;43.434;28.338;2024-01-07T07:39:17;27.45;;;8.82;;
80852;SDS011;70270;43.434;28.338;2024-01-07T07:42:02;18.23;;;7.95;;
80852;SDS011;70270;43.434;28.338;2024-01-07T07:44:47;19.30;;;7.85;;
80852;SDS011;70270;43.434;28.338;2024-01-07T07:47:32;12.80;;;6.90;;
80852;SDS011;70270;43.434;28.338;2024-01-07T07:50:16;15.07;;;7.13;;
80852;SDS011;70270;43.434;28.338;2024-01-07T07:53:01;14.05;;;6.70;;
80852;SDS011;70270;43.434;28.338;2024-01-07T07:55:46;18.10;;;7.25;;
80852;SDS011;70270;43.434;28.338;2024-01-07T07:58:31;22.70;;;9.30;;
80852;SDS011;70270;43.434;28.338;2024-01-07T08:01:16;17.20;;;7.57;;
80852;SDS011;70270;43.434;28.338;2024-01-07T08:04:02;19.75;;;8.40;;
80852;SDS011;70270;43.434;28.338;2024-01-07T08:06:46;28.27;;;8.07;;
80852;SDS011;70270;43.434;28.338;2024-01-07T08:09:31;26.58;;;11.05;;
80852;SDS011;70270;43.434;28.338;2024-01-07T08:12:15;15.60;;;7.32;;
80852;SDS011;70270;43.434;28.338;2024-01-07T08:14:59;16.17;;;7.68;;
80852;SDS011;70270;43.434;28.338;2024-01-07T08:17:44;19.85;;;8.18;;
80852;SDS011;70270;43.434;28.338;2024-01-07T08:20:28;25.65;;;7.57;;
80852;SDS011;70270;43.434;28.338;2024-01-07T08:23:13;15.43;;;6.80;;
80852;SDS011;70270;43.434;28.338;2024-01-07T08:25:57;13.02;;;5.88;;
80852;SDS011;70270;43.434;28.338;2024-01-07T08:28:42;20.85;;;7.13;;
80852;SDS011;70270;43.434;28.338;2024-01-07T08:31:27;15.13;;;6.25;;
80852;SDS011;70270;43.434;28.338;2024-01-07T08:34:11;15.05;;;5.80;;
80852;SDS011;70270;43.434;28.338;2024-01-07T08:36:56;10.63;;;5.50;;
80852;SDS011;70270;43.434;28.338;2024-01-07T08:39:40;13.88;;;5.75;;
80852;SDS011;70270;43.434;28.338;2024-01-07T08:42:25;14.93;;;6.15;;
80852;SDS011;70270;43.434;28.338;2024-01-07T08:45:10;13.82;;;6.25;;
80852;SDS011;70270;43.434;28.338;2024-01-07T08:47:55;11.43;;;5.72;;
80852;SDS011;70270;43.434;28.338;2024-01-07T08:50:40;10.30;;;5.68;;
80852;SDS011;70270;43.434;28.338;2024-01-07T08:53:24;15.45;;;5.65;;
80852;SDS011;70270;43.434;28.338;2024-01-07T08:56:08;9.88;;;4.97;;
80852;SDS011;70270;43.434;28.338;2024-01-07T08:58:53;11.43;;;4.70;;
80852;SDS011;70270;43.434;28.338;2024-01-07T09:01:37;10.23;;;5.07;;
80852;SDS011;70270;43.434;28.338;2024-01-07T09:04:22;6.93;;;4.50;;
80852;SDS011;70270;43.434;28.338;2024-01-07T09:07:06;10.38;;;4.57;;
80852;SDS011;70270;43.434;28.338;2024-01-07T09:09:50;7.32;;;4.05;;
80852;SDS011;70270;43.434;28.338;2024-01-07T09:12:35;11.30;;;4.13;;
80852;SDS011;70270;43.434;28.338;2024-01-07T09:15:20;8.43;;;4.05;;
80852;SDS011;70270;43.434;28.338;2024-01-07T09:18:05;13.93;;;4.38;;
80852;SDS011;70270;43.434;28.338;2024-01-07T09:20:50;13.50;;;4.60;;
80852;SDS011;70270;43.434;28.338;2024-01-07T09:23:34;11.18;;;3.35;;
80852;SDS011;70270;43.434;28.338;2024-01-07T09:26:20;10.50;;;3.92;;
80852;SDS011;70270;43.434;28.338;2024-01-07T09:29:04;9.70;;;3.53;;
80852;SDS011;70270;43.434;28.338;2024-01-07T09:31:49;11.45;;;3.40;;
80852;SDS011;70270;43.434;28.338;2024-01-07T09:34:33;15.43;;;4.38;;
80852;SDS011;70270;43.434;28.338;2024-01-07T09:37:19;17.17;;;4.22;;
80852;SDS011;70270;43.434;28.338;2024-01-07T09:40:04;12.20;;;3.95;;
80852;SDS011;70270;43.434;28.338;2024-01-07T09:42:50;13.80;;;4.57;;
80852;SDS011;70270;43.434;28.338;2024-01-07T09:45:38;13.25;;;4.40;;
80852;SDS011;70270;43.434;28.338;2024-01-07T09:48:25;17.85;;;5.47;;
80852;SDS011;70270;43.434;28.338;2024-01-07T09:51:09;18.83;;;5.75;;
80852;SDS011;70270;43.434;28.338;2024-01-07T09:53:56;19.63;;;4.80;;
80852;SDS011;70270;43.434;28.338;2024-01-07T09:56:55;15.38;;;4.97;;
80852;SDS011;70270;43.434;28.338;2024-01-07T09:59:45;12.13;;;5.68;;
80852;SDS011;70270;43.434;28.338;2024-01-07T10:02:30;19.77;;;6.50;;
80852;SDS011;70270;43.434;28.338;2024-01-07T10:05:15;20.08;;;5.70;;
80852;SDS011;70270;43.434;28.338;2024-01-07T10:08:00;28.80;;;6.05;;
80852;SDS011;70270;43.434;28.338;2024-01-07T10:10:48;20.35;;;5.97;;
80852;SDS011;70270;43.434;28.338;2024-01-07T10:13:33;14.70;;;4.90;;
80852;SDS011;70270;43.434;28.338;2024-01-07T10:16:17;19.58;;;4.88;;
80852;SDS011;70270;43.434;28.338;2024-01-07T10:19:02;22.02;;;7.80;;
80852;SDS011;70270;43.434;28.338;2024-01-07T10:22:01;18.85;;;5.22;;
80852;SDS011;70270;43.434;28.338;2024-01-07T10:24:47;22.77;;;6.38;;
80852;SDS011;70270;43.434;28.338;2024-01-07T10:27:35;20.52;;;5.38;;
80852;SDS011;70270;43.434;28.338;2024-01-07T10:30:20;19.10;;;6.40;;
80852;SDS011;70270;43.434;28.338;2024-01-07T10:33:06;15.43;;;5.63;;
80852;SDS011;70270;43.434;28.338;2024-01-07T10:35:52;26.67;;;7.45;;
80852;SDS011;70270;43.434;28.338;2024-01-07T10:38:40;19.45;;;6.22;;
80852;SDS011;70270;43.434;28.338;2024-01-07T10:41:28;25.65;;;6.43;;
80852;SDS011;70270;43.434;28.338;2024-01-07T10:44:15;32.78;;;7.60;;
80852;SDS011;70270;43.434;28.338;2024-01-07T10:47:00;15.73;;;5.70;;
80852;SDS011;70270;43.434;28.338;2024-01-07T10:49:50;21.63;;;6.00;;
80852;SDS011;70270;43.434;28.338;2024-01-07T10:52:35;19.63;;;5.35;;
80852;SDS011;70270;43.434;28.338;2024-01-07T10:55:23;30.67;;;8.75;;
80852;SDS011;70270;43.434;28.338;2024-01-07T10:58:10;27.88;;;6.65;;
80852;SDS011;70270;43.434;28.338;2024-01-07T11:00:55;34.38;;;8.50;;
80852;SDS011;70270;43.434;28.338;2024-01-07T11:03:46;27.92;;;6.18;;
80852;SDS011;70270;43.434;28.338;2024-01-07T11:06:43;22.95;;;7.38;;
80852;SDS011;70270;43.434;28.338;2024-01-07T11:13:03;33.10;;;6.28;;
80852;SDS011;70270;43.434;28.338;2024-01-07T11:18:40;28.25;;;6.93;;
80852;SDS011;70270;43.434;28.338;2024-01-07T11:21:31;29.85;;;7.55;;
80852;SDS011;70270;43.434;28.338;2024-01-07T11:27:42;21.08;;;5.43;;
80852;SDS011;70270;43.434;28.338;2024-01-07T11:30:26;25.55;;;7.43;;
80852;SDS011;70270;43.434;28.338;2024-01-07T11:33:11;31.20;;;6.38;;
80852;SDS011;70270;43.434;28.338;2024-01-07T11:35:57;30.67;;;5.82;;
80852;SDS011;70270;43.434;28.338;2024-01-07T11:38:48;28.17;;;6.45;;
80852;SDS011;70270;43.434;28.338;2024-01-07T11:41:33;32.70;;;6.78;;
80852;SDS011;70270;43.434;28.338;2024-01-07T11:44:17;31.65;;;6.28;;
80852;SDS011;70270;43.434;28.338;2024-01-07T11:47:03;23.95;;;6.05;;
80852;SDS011;70270;43.434;28.338;2024-01-07T11:49:50;21.52;;;6.20;;
80852;SDS011;70270;43.434;28.338;2024-01-07T11:52:35;26.05;;;5.95;;
80852;SDS011;70270;43.434;28.338;2024-01-07T11:55:22;32.60;;;6.43;;
80852;SDS011;70270;43.434;28.338;2024-01-07T11:58:07;28.52;;;8.35;;
80852;SDS011;70270;43.434;28.338;2024-01-07T12:00:52;26.67;;;6.07;;
80852;SDS011;70270;43.434;28.338;2024-01-07T12:03:36;29.00;;;6.90;;
80852;SDS011;70270;43.434;28.338;2024-01-07T12:06:21;22.38;;;4.90;;
80852;SDS011;70270;43.434;28.338;2024-01-07T12:09:06;35.50;;;7.53;;
80852;SDS011;70270;43.434;28.338;2024-01-07T12:11:51;27.83;;;6.35;;
80852;SDS011;70270;43.434;28.338;2024-01-07T12:14:35;38.85;;;6.13;;
80852;SDS011;70270;43.434;28.338;2024-01-07T12:17:20;25.63;;;6.18;;
80852;SDS011;70270;43.434;28.338;2024-01-07T12:20:04;36.38;;;6.50;;
80852;SDS011;70270;43.434;28.338;2024-01-07T12:22:51;26.95;;;7.68;;
80852;SDS011;70270;43.434;28.338;2024-01-07T12:25:35;40.67;;;7.40;;
80852;SDS011;70270;43.434;28.338;2024-01-07T12:28:20;28.00;;;6.10;;
80852;SDS011;70270;43.434;28.338;2024-01-07T12:31:05;35.33;;;7.10;;
80852;SDS011;70270;43.434;28.338;2024-01-07T12:33:50;35.40;;;8.00;;
80852;SDS011;70270;43.434;28.338;2024-01-07T12:36:35;35.42;;;7.00;;
80852;SDS011;70270;43.434;28.338;2024-01-07T12:39:19;38.70;;;8.68;;
80852;SDS011;70270;43.434;28.338;2024-01-07T12:42:04;28.48;;;5.70;;
80852;SDS011;70270;43.434;28.338;2024-01-07T12:45:09;31.52;;;6.30;;
80852;SDS011;70270;43.434;28.338;2024-01-07T12:47:54;28.25;;;6.03;;
80852;SDS011;70270;43.434;28.338;2024-01-07T12:50:42;26.10;;;6.22;;
80852;SDS011;70270;43.434;28.338;2024-01-07T12:53:27;25.33;;;5.10;;
80852;SDS011;70270;43.434;28.338;2024-01-07T12:56:13;33.65;;;6.63;;
80852;SDS011;70270;43.434;28.338;2024-01-07T12:58:58;27.25;;;5.25;;
80852;SDS011;70270;43.434;28.338;2024-01-07T13:01:42;25.33;;;6.53;;
80852;SDS011;70270;43.434;28.338;2024-01-07T13:04:26;22.08;;;6.20;;
80852;SDS011;70270;43.434;28.338;2024-01-07T13:07:11;32.20;;;6.95;;
80852;SDS011;70270;43.434;28.338;2024-01-07T13:09:55;24.13;;;4.95;;
80852;SDS011;70270;43.434;28.338;2024-01-07T13:12:40;30.10;;;6.68;;
80852;SDS011;70270;43.434;28.338;2024-01-07T13:15:24;21.30;;;4.85;;
80852;SDS011;70270;43.434;28.338;2024-01-07T13:18:09;17.50;;;5.50;;
80852;SDS011;70270;43.434;28.338;2024-01-07T13:20:56;21.92;;;5.80;;
80852;SDS011;70270;43.434;28.338;2024-01-07T13:23:40;32.63;;;6.40;;
80852;SDS011;70270;43.434;28.338;2024-01-07T13:26:27;40.20;;;7.93;;
80852;SDS011;70270;43.434;28.338;2024-01-07T13:29:12;22.92;;;6.00;;
80852;SDS011;70270;43.434;28.338;2024-01-07T13:31:56;26.83;;;6.50;;
80852;SDS011;70270;43.434;28.338;2024-01-07T13:34:40;36.80;;;7.18;;
80852;SDS011;70270;43.434;28.338;2024-01-07T13:37:25;24.33;;;6.22;;
80852;SDS011;70270;43.434;28.338;2024-01-07T13:40:10;24.50;;;6.43;;
80852;SDS011;70270;43.434;28.338;2024-01-07T13:42:55;31.33;;;8.80;;
80852;SDS011;70270;43.434;28.338;2024-01-07T13:45:39;30.83;;;7.80;;
80852;SDS011;70270;43.434;28.338;2024-01-07T13:48:25;32.47;;;6.20;;
80852;SDS011;70270;43.434;28.338;2024-01-07T13:51:10;26.70;;;5.80;;
80852;SDS011;70270;43.434;28.338;2024-01-07T13:53:54;28.27;;;6.47;;
80852;SDS011;70270;43.434;28.338;2024-01-07T13:56:39;33.90;;;7.70;;
80852;SDS011;70270;43.434;28.338;2024-01-07T13:59:26;27.58;;;7.88;;
80852;SDS011;70270;43.434;28.338;2024-01-07T14:02:10;30.88;;;7.78;;
80852;SDS011;70270;43.434;28.338;2024-01-07T14:04:55;42.97;;;10.48;;
80852;SDS011;70270;43.434;28.338;2024-01-07T14:07:39;37.92;;;10.10;;
80852;SDS011;70270;43.434;28.338;2024-01-07T14:10:25;29.13;;;6.68;;
80852;SDS011;70270;43.434;28.338;2024-01-07T14:13:09;20.20;;;6.35;;
80852;SDS011;70270;43.434;28.338;2024-01-07T14:15:54;34.08;;;7.30;;
80852;SDS011;70270;43.434;28.338;2024-01-07T14:18:39;26.30;;;6.60;;
80852;SDS011;70270;43.434;28.338;2024-01-07T14:21:23;26.15;;;8.15;;
80852;SDS011;70270;43.434;28.338;2024-01-07T14:24:09;37.60;;;6.47;;
80852;SDS011;70270;43.434;28.338;2024-01-07T14:26:53;21.08;;;5.45;;
80852;SDS011;70270;43.434;28.338;2024-01-07T14:29:38;35.45;;;5.97;;
80852;SDS011;70270;43.434;28.338;2024-01-07T14:32:22;23.90;;;5.88;;
80852;SDS011;70270;43.434;28.338;2024-01-07T14:35:07;24.88;;;6.28;;
80852;SDS011;70270;43.434;28.338;2024-01-07T14:37:52;23.63;;;6.28;;
80852;SDS011;70270;43.434;28.338;2024-01-07T14:40:36;25.10;;;7.18;;
80852;SDS011;70270;43.434;28.338;2024-01-07T14:43:22;29.88;;;7.00;;
80852;SDS011;70270;43.434;28.338;2024-01-07T14:46:07;32.63;;;7.32;;
80852;SDS011;70270;43.434;28.338;2024-01-07T14:48:52;19.05;;;6.93;;
80852;SDS011;70270;43.434;28.338;2024-01-07T14:51:36;34.63;;;7.90;;
80852;SDS011;70270;43.434;28.338;2024-01-07T14:54:21;27.75;;;8.93;;
80852;SDS011;70270;43.434;28.338;2024-01-07T14:57:06;29.17;;;9.38;;
80852;SDS011;70270;43.434;28.338;2024-01-07T15:02:36;35.50;;;10.23;;
80852;SDS011;70270;43.434;28.338;2024-01-07T15:05:21;24.15;;;7.85;;
80852;SDS011;70270;43.434;28.338;2024-01-07T15:08:05;29.00;;;8.48;;
80852;SDS011;70270;43.434;28.338;2024-01-07T15:10:50;44.63;;;11.90;;
80852;SDS011;70270;43.434;28.338;2024-01-07T15:13:34;30.42;;;9.60;;
80852;SDS011;70270;43.434;28.338;2024-01-07T15:16:19;28.48;;;9.20;;
80852;SDS011;70270;43.434;28.338;2024-01-07T15:19:03;32.13;;;9.85;;
80852;SDS011;70270;43.434;28.338;2024-01-07T15:21:48;30.48;;;9.02;;
80852;SDS011;70270;43.434;28.338;2024-01-07T15:24:32;23.70;;;8.40;;
80852;SDS011;70270;43.434;28.338;2024-01-07T15:27:17;40.95;;;9.98;;
80852;SDS011;70270;43.434;28.338;2024-01-07T15:30:01;28.35;;;11.80;;
80852;SDS011;70270;43.434;28.338;2024-01-07T15:32:48;26.77;;;10.38;;
80852;SDS011;70270;43.434;28.338;2024-01-07T15:35:33;36.50;;;13.00;;
80852;SDS011;70270;43.434;28.338;2024-01-07T15:38:17;40.35;;;11.80;;
80852;SDS011;70270;43.434;28.338;2024-01-07T15:41:02;35.13;;;12.23;;
80852;SDS011;70270;43.434;28.338;2024-01-07T15:43:46;28.45;;;10.68;;
80852;SDS011;70270;43.434;28.338;2024-01-07T15:46:31;33.08;;;12.18;;
80852;SDS011;70270;43.434;28.338;2024-01-07T15:49:15;29.10;;;8.75;;
80852;SDS011;70270;43.434;28.338;2024-01-07T15:52:00;24.92;;;10.05;;
80852;SDS011;70270;43.434;28.338;2024-01-07T15:54:45;31.77;;;7.13;;
80852;SDS011;70270;43.434;28.338;2024-01-07T15:57:29;28.08;;;7.47;;
80852;SDS011;70270;43.434;28.338;2024-01-07T16:00:14;28.25;;;10.05;;
80852;SDS011;70270;43.434;28.338;2024-01-07T16:02:58;28.90;;;7.93;;
80852;SDS011;70270;43.434;28.338;2024-01-07T16:05:43;37.45;;;10.23;;
80852;SDS011;70270;43.434;28.338;2024-01-07T16:08:27;23.77;;;9.10;;
80852;SDS011;70270;43.434;28.338;2024-01-07T16:11:13;25.52;;;9.10;;
80852;SDS011;70270;43.434;28.338;2024-01-07T16:14:00;27.02;;;8.32;;